createdAt,value
2022-12-19T00:00:34.506Z,54.15
2022-12-19T00:03:03.542Z,54.20
2022-12-19T00:05:31.852Z,55.78
2022-12-19T00:08:02.438Z,59.92
2022-12-19T00:10:46.177Z,56.33
2022-12-19T00:13:17.747Z,56.25
2022-12-19T00:15:48.397Z,62.72
2022-12-19T00:18:17.531Z,58.55
2022-12-19T00:20:45.654Z,63.00
2022-12-19T00:23:15.040Z,55.25
2022-12-19T00:25:45.887Z,55.42
2022-12-19T00:28:19.081Z,55.40
2022-12-19T00:30:49.398Z,61.03
2022-12-19T00:33:19.652Z,55.50
2022-12-19T00:35:47.831Z,54.58
2022-12-19T00:38:23.446Z,55.60
2022-12-19T00:40:51.468Z,56.58
2022-12-19T00:43:21.257Z,65.78
2022-12-19T00:45:50.893Z,51.15
2022-12-19T00:48:19.027Z,52.65
2022-12-19T00:50:46.896Z,53.15
2022-12-19T00:53:14.991Z,56.85
2022-12-19T00:55:43.355Z,60.13
2022-12-19T00:58:11.632Z,55.38
2022-12-19T01:00:40.886Z,58.20
2022-12-19T01:03:13.022Z,55.88
2022-12-19T01:05:43.421Z,54.60
2022-12-19T01:08:13.614Z,59.85
2022-12-19T01:10:47.110Z,50.22
2022-12-19T01:13:14.251Z,50.38
2022-12-19T01:15:42.871Z,58.25
2022-12-19T01:18:12.692Z,52.80
2022-12-19T01:20:42.668Z,45.53
2022-12-19T01:23:11.419Z,54.08
2022-12-19T01:25:39.920Z,59.13
2022-12-19T01:28:16.751Z,49.20
2022-12-19T01:30:47.453Z,54.45
2022-12-19T01:33:23.410Z,62.28
2022-12-19T01:35:51.780Z,54.78
2022-12-19T01:38:23.729Z,50.67
2022-12-19T01:40:52.838Z,54.57
2022-12-19T01:43:21.840Z,52.85
2022-12-19T01:45:55.059Z,57.30
2022-12-19T01:48:32.230Z,57.05
2022-12-19T01:51:03.839Z,54.90
2022-12-19T01:53:45.754Z,53.95
2022-12-19T01:56:18.204Z,54.28
2022-12-19T01:58:49.468Z,54.38
2022-12-19T02:01:18.931Z,57.80
2022-12-19T02:03:49.150Z,50.97
2022-12-19T02:06:17.486Z,51.35
2022-12-19T02:08:47.763Z,49.35
2022-12-19T02:11:16.315Z,50.88
2022-12-19T02:13:46.696Z,52.10
2022-12-19T02:16:24.007Z,51.38
2022-12-19T02:19:09.502Z,48.65
2022-12-19T02:21:55.994Z,48.47
2022-12-19T02:24:59.985Z,53.72
2022-12-19T02:27:59.311Z,51.10
2022-12-19T02:30:52.938Z,54.00
2022-12-19T02:33:28.701Z,56.78
2022-12-19T02:36:05.537Z,49.67
2022-12-19T02:38:40.473Z,56.08
2022-12-19T02:41:14.332Z,47.55
2022-12-19T02:43:47.546Z,52.92
2022-12-19T02:46:22.400Z,45.55
2022-12-19T02:48:51.216Z,48.00
2022-12-19T02:51:19.332Z,50.95
2022-12-19T02:53:47.837Z,56.05
2022-12-19T02:56:39.390Z,52.70
2022-12-19T02:59:16.759Z,52.75
2022-12-19T03:01:52.222Z,48.15
2022-12-19T03:04:32.965Z,50.67
2022-12-19T03:07:09.745Z,54.58
2022-12-19T03:09:51.130Z,53.85
2022-12-19T03:12:25.374Z,54.22
2022-12-19T03:14:54.826Z,50.10
2022-12-19T03:17:24.461Z,51.53
2022-12-19T03:19:52.426Z,54.28
2022-12-19T03:22:21.211Z,54.80
2022-12-19T03:24:51.797Z,51.58
2022-12-19T03:27:25.876Z,47.78
2022-12-19T03:30:01.441Z,49.35
2022-12-19T03:32:32.243Z,47.60
2022-12-19T03:35:05.683Z,46.22
2022-12-19T03:37:36.513Z,49.17
2022-12-19T03:40:10.536Z,52.53
2022-12-19T03:42:58.747Z,53.50
2022-12-19T03:45:32.215Z,54.42
2022-12-19T03:48:05.541Z,54.22
2022-12-19T03:50:48.889Z,49.28
2022-12-19T03:53:30.575Z,47.13
2022-12-19T03:56:06.701Z,52.55
2022-12-19T03:58:39.612Z,41.67
2022-12-19T04:03:45.026Z,52.38
2022-12-19T04:06:14.450Z,51.30
2022-12-19T04:08:44.605Z,53.47
2022-12-19T04:11:20.832Z,53.35
2022-12-19T04:13:53.102Z,55.80
2022-12-19T04:16:28.230Z,51.50
2022-12-19T04:19:04.972Z,47.30
2022-12-19T04:21:37.742Z,52.22
2022-12-19T04:24:13.011Z,51.15
2022-12-19T04:26:46.748Z,47.70
2022-12-19T04:29:16.109Z,48.67
2022-12-19T04:31:46.520Z,55.90
2022-12-19T04:34:22.099Z,49.20
2022-12-19T04:36:51.434Z,52.35
2022-12-19T04:39:20.409Z,57.00
2022-12-19T04:41:48.827Z,54.83
2022-12-19T04:44:19.886Z,47.65
2022-12-19T04:46:48.553Z,53.22
2022-12-19T04:49:18.097Z,50.42
2022-12-19T04:51:46.712Z,52.67
2022-12-19T04:54:14.599Z,52.30
2022-12-19T04:56:42.771Z,58.78
2022-12-19T04:59:11.247Z,51.42
2022-12-19T05:01:39.520Z,51.90
2022-12-19T05:04:07.793Z,55.50
2022-12-19T05:06:37.154Z,58.22
2022-12-19T05:09:05.447Z,56.00
2022-12-19T05:11:34.898Z,50.78
2022-12-19T05:14:03.374Z,54.25
2022-12-19T05:16:31.366Z,48.92
2022-12-19T05:18:59.636Z,50.75
2022-12-19T05:21:27.756Z,56.75
2022-12-19T05:23:57.269Z,58.83
2022-12-19T05:26:25.345Z,54.53
2022-12-19T05:28:53.780Z,51.80
2022-12-19T05:31:24.845Z,54.30
2022-12-19T05:33:53.109Z,54.80
2022-12-19T05:36:24.533Z,55.60
2022-12-19T05:38:57.159Z,52.25
2022-12-19T05:41:25.212Z,53.25
2022-12-19T05:43:55.001Z,53.85
2022-12-19T05:46:24.103Z,47.90
2022-12-19T05:48:54.228Z,54.72
2022-12-19T05:51:22.854Z,51.88
2022-12-19T05:53:50.937Z,56.50
2022-12-19T05:56:23.350Z,56.30
2022-12-19T05:58:51.642Z,56.97
2022-12-19T06:01:22.413Z,54.38
2022-12-19T06:03:50.928Z,57.72
2022-12-19T06:06:24.280Z,55.33
2022-12-19T06:08:55.006Z,53.55
2022-12-19T06:11:24.890Z,50.80
2022-12-19T06:13:52.890Z,50.20
2022-12-19T06:16:23.496Z,51.90
2022-12-19T06:18:52.694Z,47.38
2022-12-19T06:21:25.830Z,56.72
2022-12-19T06:23:53.968Z,57.72
2022-12-19T06:26:24.189Z,54.53
2022-12-19T06:28:53.895Z,56.03
2022-12-19T06:31:23.168Z,53.03
2022-12-19T06:33:54.910Z,50.05
2022-12-19T06:36:24.655Z,53.95
2022-12-19T06:38:54.545Z,49.00
2022-12-19T06:41:41.757Z,52.53
2022-12-19T06:44:12.178Z,53.63
2022-12-19T06:46:41.502Z,56.67
2022-12-19T06:49:10.033Z,52.88
2022-12-19T06:51:38.208Z,57.63
2022-12-19T06:54:06.594Z,59.13
2022-12-19T06:56:42.208Z,55.35
2022-12-19T06:59:16.178Z,55.40
2022-12-19T07:01:54.039Z,54.25
2022-12-19T07:04:27.803Z,51.95
2022-12-19T07:06:56.630Z,52.83
2022-12-19T07:09:24.574Z,55.58
2022-12-19T07:11:54.016Z,55.22
2022-12-19T07:14:22.244Z,60.30
2022-12-19T07:16:52.138Z,58.65
2022-12-19T07:19:21.201Z,51.22
2022-12-19T07:21:50.137Z,53.90
2022-12-19T07:24:19.188Z,54.33
2022-12-19T07:26:47.373Z,52.45
2022-12-19T07:29:17.376Z,55.20
2022-12-19T07:31:45.655Z,52.60
2022-12-19T07:34:13.547Z,56.88
2022-12-19T07:36:41.992Z,52.80
2022-12-19T07:39:10.242Z,61.17
2022-12-19T07:41:38.485Z,55.13
2022-12-19T07:44:08.680Z,61.67
2022-12-19T07:46:38.247Z,65.05
2022-12-19T07:49:06.461Z,59.72
2022-12-19T07:51:34.598Z,56.65
2022-12-19T07:54:02.585Z,57.05
2022-12-19T07:56:32.590Z,56.58
2022-12-19T07:59:00.917Z,60.53
2022-12-19T08:01:29.741Z,50.30
2022-12-19T08:04:00.420Z,52.17
2022-12-19T08:06:29.522Z,57.17
2022-12-19T08:09:05.446Z,54.83
2022-12-19T08:11:33.437Z,56.92
2022-12-19T08:14:01.545Z,53.92
2022-12-19T08:16:29.503Z,56.13
2022-12-19T08:18:57.519Z,52.80
2022-12-19T08:21:26.973Z,64.07
2022-12-19T08:23:55.277Z,52.67
2022-12-19T08:26:26.055Z,64.80
2022-12-19T08:28:54.534Z,59.28
2022-12-19T08:31:25.129Z,59.88
2022-12-19T08:33:54.868Z,59.85
2022-12-19T08:36:23.156Z,53.70
2022-12-19T08:38:53.840Z,60.60
2022-12-19T08:41:22.193Z,53.03
2022-12-19T08:43:53.992Z,55.22
2022-12-19T08:46:23.042Z,49.67
2022-12-19T08:48:52.531Z,53.00
2022-12-19T08:51:20.940Z,53.25
2022-12-19T08:53:49.276Z,56.00
2022-12-19T08:56:20.936Z,65.93
2022-12-19T08:58:49.949Z,61.35
2022-12-19T09:01:20.576Z,55.55
2022-12-19T09:04:27.909Z,61.45
2022-12-19T09:06:37.367Z,62.00
2022-12-19T09:09:06.688Z,63.78
2022-12-19T09:11:37.607Z,72.53
2022-12-19T09:14:20.939Z,81.53
2022-12-19T09:19:18.168Z,57.03
2022-12-19T09:21:48.821Z,61.53
2022-12-19T09:24:17.004Z,60.28
2022-12-19T09:26:46.549Z,54.45
2022-12-19T09:29:20.570Z,57.85
2022-12-19T09:31:55.525Z,63.53
2022-12-19T09:34:31.779Z,65.40
2022-12-19T09:37:05.246Z,68.18
2022-12-19T09:39:34.153Z,56.25
2022-12-19T09:42:26.836Z,63.38
2022-12-19T09:45:08.276Z,61.17
2022-12-19T09:47:40.010Z,53.75
2022-12-19T09:50:24.301Z,53.10
2022-12-19T09:52:59.139Z,58.60
2022-12-19T09:55:34.769Z,57.42
2022-12-19T09:58:09.236Z,56.60
2022-12-19T10:00:42.444Z,54.95
2022-12-19T10:03:20.531Z,60.13
2022-12-19T10:07:08.829Z,58.53
2022-12-19T10:09:02.593Z,55.00
2022-12-19T10:12:44.384Z,54.20
2022-12-19T10:14:58.594Z,57.13
2022-12-19T10:17:36.846Z,50.78
2022-12-19T10:20:25.360Z,54.28
2022-12-19T10:23:03.994Z,59.30
2022-12-19T10:25:47.677Z,55.30
2022-12-19T10:28:28.870Z,61.40
2022-12-19T10:31:13.991Z,63.95
2022-12-19T10:33:47.956Z,54.28
2022-12-19T10:36:15.858Z,56.65
2022-12-19T10:38:55.461Z,55.17
2022-12-19T10:41:29.296Z,54.65
2022-12-19T10:44:05.727Z,49.80
2022-12-19T10:46:41.117Z,51.85
2022-12-19T10:49:15.264Z,52.35
2022-12-19T10:51:43.748Z,53.75
2022-12-19T10:54:11.783Z,48.83
2022-12-19T10:56:40.108Z,51.90
2022-12-19T10:59:18.056Z,50.00
2022-12-19T11:01:54.171Z,47.30
2022-12-19T11:04:32.499Z,49.92
2022-12-19T11:07:18.428Z,45.80
2022-12-19T11:09:59.959Z,49.03
2022-12-19T11:16:05.815Z,47.42
2022-12-19T11:19:17.637Z,50.15
2022-12-19T11:26:34.453Z,46.65
2022-12-19T11:29:40.502Z,40.70
2022-12-19T11:30:05.172Z,46.03
2022-12-19T11:30:49.024Z,41.53
2022-12-19T11:32:43.786Z,42.85
2022-12-19T11:35:36.744Z,42.60
2022-12-19T11:38:08.474Z,49.00
2022-12-19T11:40:46.536Z,48.25
2022-12-19T11:43:43.656Z,44.08
2022-12-19T11:46:25.562Z,53.65
2022-12-19T11:48:57.819Z,49.47
2022-12-19T11:51:34.571Z,46.60
2022-12-19T11:54:12.848Z,46.45
2022-12-19T11:56:41.092Z,50.22
2022-12-19T11:59:19.689Z,51.83
2022-12-19T12:02:01.692Z,49.75
2022-12-19T12:04:51.988Z,44.05
2022-12-19T12:08:35.414Z,42.38
2022-12-19T12:15:10.025Z,46.28
2022-12-19T12:22:09.835Z,46.67
2022-12-19T12:29:41.623Z,46.25
2022-12-19T12:31:13.019Z,46.53
2022-12-19T12:31:28.140Z,52.03
2022-12-19T12:31:53.069Z,47.88
2022-12-19T12:35:08.606Z,45.65
2022-12-19T12:35:30.461Z,45.85
2022-12-19T12:40:50.557Z,44.15
2022-12-19T12:43:32.645Z,41.08
2022-12-19T12:46:01.238Z,46.67
2022-12-19T12:48:34.293Z,42.88
2022-12-19T12:51:04.019Z,48.13
2022-12-19T12:53:38.287Z,42.75
2022-12-19T12:56:11.458Z,41.95
2022-12-19T12:59:08.662Z,42.55
2022-12-19T13:01:43.655Z,42.60
2022-12-19T13:04:26.060Z,44.22
2022-12-19T13:07:20.088Z,41.43
2022-12-19T13:09:54.880Z,40.92
2022-12-19T13:12:44.974Z,42.97
2022-12-19T13:15:43.482Z,41.08
2022-12-19T13:18:33.786Z,41.97
2022-12-19T13:21:04.041Z,44.13
2022-12-19T13:23:49.484Z,44.45
2022-12-19T13:26:51.061Z,45.13
2022-12-19T13:29:36.310Z,40.55
2022-12-19T13:32:14.588Z,41.50
2022-12-19T13:35:07.036Z,45.58
2022-12-19T13:39:54.776Z,39.60
2022-12-19T13:40:34.499Z,42.92
2022-12-19T13:43:33.909Z,46.78
2022-12-19T13:46:08.145Z,47.95
2022-12-19T13:48:41.363Z,47.80
2022-12-19T13:51:11.965Z,44.38
2022-12-19T13:53:40.410Z,46.17
2022-12-19T13:56:14.636Z,39.85
2022-12-19T13:58:48.805Z,39.65
2022-12-19T14:01:24.052Z,40.10
2022-12-19T14:03:54.700Z,39.88
2022-12-19T14:06:26.177Z,40.90
2022-12-19T14:09:46.163Z,38.28
2022-12-19T14:13:43.648Z,39.78
2022-12-19T14:15:13.662Z,47.80
2022-12-19T14:17:49.173Z,45.42
2022-12-19T14:22:10.855Z,43.35
2022-12-19T14:23:09.048Z,48.00
2022-12-19T14:28:15.783Z,43.55
2022-12-19T14:28:39.742Z,39.10
2022-12-19T14:31:12.669Z,38.67
2022-12-19T14:36:34.566Z,42.63
2022-12-19T14:39:23.376Z,41.72
2022-12-19T14:42:11.904Z,45.10
2022-12-19T14:52:34.558Z,45.80
2022-12-19T14:52:35.127Z,43.47
2022-12-19T14:54:23.892Z,47.00
2022-12-19T14:54:28.280Z,44.75
2022-12-19T14:59:03.932Z,42.92
2022-12-19T15:01:36.545Z,42.33
2022-12-19T15:07:08.790Z,46.28
2022-12-19T15:10:58.553Z,46.35
2022-12-19T15:14:49.678Z,42.47
2022-12-19T15:15:58.740Z,43.13
2022-12-19T15:18:28.692Z,43.90
2022-12-19T15:20:59.210Z,49.30
2022-12-19T15:23:29.815Z,40.55
2022-12-19T15:26:05.577Z,46.08
2022-12-19T15:28:39.882Z,44.72
2022-12-19T15:31:15.280Z,46.38
2022-12-19T15:34:06.636Z,45.47
2022-12-19T15:36:31.628Z,52.90
2022-12-19T15:39:01.171Z,52.10
2022-12-19T15:41:31.236Z,53.45
2022-12-19T15:44:04.004Z,53.53
2022-12-19T15:46:34.064Z,50.67
2022-12-19T15:49:02.281Z,50.25
2022-12-19T15:51:30.318Z,51.95
2022-12-19T15:54:22.202Z,51.25
2022-12-19T15:56:51.249Z,51.15
2022-12-19T16:01:56.464Z,47.22
2022-12-19T16:04:25.743Z,50.00
2022-12-19T16:06:54.110Z,53.97
2022-12-19T16:09:24.166Z,47.67
2022-12-19T16:11:57.640Z,56.03
2022-12-19T16:14:27.545Z,53.85
2022-12-19T16:16:57.672Z,50.67
2022-12-19T16:19:30.252Z,48.15
2022-12-19T16:22:00.743Z,51.10
2022-12-19T16:24:28.806Z,53.63
2022-12-19T16:27:00.389Z,60.63
2022-12-19T16:29:31.481Z,58.90
2022-12-19T16:32:00.920Z,61.45
2022-12-19T16:34:31.351Z,68.35
2022-12-19T16:37:01.927Z,100.43
2022-12-19T16:39:30.215Z,83.20
2022-12-19T16:41:59.948Z,77.38
2022-12-19T16:44:32.138Z,72.65
2022-12-19T16:47:00.306Z,67.40
2022-12-19T16:49:28.490Z,64.03
2022-12-19T16:51:56.480Z,55.05
2022-12-19T16:54:24.502Z,50.95
2022-12-19T16:56:56.755Z,56.63
2022-12-19T16:59:32.390Z,53.90
2022-12-19T17:02:01.586Z,51.85
2022-12-19T17:04:30.562Z,54.38
2022-12-19T17:07:00.125Z,53.13
2022-12-19T17:09:28.303Z,53.85
2022-12-19T17:11:59.352Z,56.10
2022-12-19T17:14:31.856Z,61.58
2022-12-19T17:17:01.045Z,61.80
2022-12-19T17:19:37.326Z,50.65
2022-12-19T17:22:12.112Z,59.83
2022-12-19T17:24:40.546Z,53.47
2022-12-19T17:27:08.998Z,64.03
2022-12-19T17:29:38.409Z,55.65
2022-12-19T17:32:09.057Z,55.30
2022-12-19T17:34:37.563Z,55.90
2022-12-19T17:37:07.102Z,59.65
2022-12-19T17:39:35.685Z,59.90
2022-12-19T17:42:16.781Z,59.45
2022-12-19T17:44:46.169Z,56.90
2022-12-19T17:47:16.531Z,51.30
2022-12-19T17:49:44.818Z,53.78
2022-12-19T17:52:15.892Z,58.38
2022-12-19T17:54:44.400Z,56.33
2022-12-19T17:57:15.243Z,53.28
2022-12-19T17:59:43.929Z,61.95
2022-12-19T18:02:21.652Z,60.72
2022-12-19T18:04:50.472Z,57.47
2022-12-19T18:07:19.187Z,63.75
2022-12-19T18:09:48.514Z,66.88
2022-12-19T18:12:16.762Z,61.10
2022-12-19T18:14:44.988Z,63.67
2022-12-19T18:17:14.809Z,59.78
2022-12-19T18:19:44.748Z,64.15
2022-12-19T18:22:14.420Z,63.28
2022-12-19T18:24:42.966Z,69.80
2022-12-19T18:27:11.107Z,65.68
2022-12-19T18:29:39.043Z,59.97
2022-12-19T18:32:23.440Z,69.68
2022-12-19T18:34:53.763Z,69.85
2022-12-19T18:37:21.924Z,73.60
2022-12-19T18:39:56.277Z,78.97
2022-12-19T18:42:26.262Z,92.95
2022-12-19T18:44:54.641Z,79.82
2022-12-19T18:47:25.400Z,74.50
2022-12-19T18:49:55.269Z,78.82
2022-12-19T18:52:23.421Z,78.32
2022-12-19T18:54:51.691Z,75.22
2022-12-19T18:57:20.316Z,64.75
2022-12-19T18:59:50.225Z,53.88
2022-12-19T19:02:28.577Z,57.10
2022-12-19T19:04:58.990Z,56.70
2022-12-19T19:07:27.342Z,57.83
2022-12-19T19:09:55.557Z,59.33
2022-12-19T19:12:23.677Z,52.83
2022-12-19T19:14:52.159Z,53.60
2022-12-19T19:17:29.297Z,54.33
2022-12-19T19:19:59.071Z,57.67
2022-12-19T19:22:27.268Z,55.95
2022-12-19T19:24:55.807Z,62.38
2022-12-19T19:27:23.784Z,67.68
2022-12-19T19:29:53.409Z,60.90
2022-12-19T19:32:21.603Z,56.17
2022-12-19T19:34:53.407Z,59.42
2022-12-19T19:37:24.066Z,59.35
2022-12-19T19:39:52.687Z,51.53
2022-12-19T19:42:20.982Z,59.70
2022-12-19T19:44:49.146Z,50.63
2022-12-19T19:47:17.344Z,53.92
2022-12-19T19:49:45.526Z,53.67
2022-12-19T19:52:13.524Z,58.72
2022-12-19T19:54:42.883Z,61.45
2022-12-19T19:57:11.044Z,55.83
2022-12-19T19:59:39.593Z,68.85
2022-12-19T20:02:11.277Z,59.03
2022-12-19T20:04:40.484Z,59.97
2022-12-19T20:07:08.509Z,62.13
2022-12-19T20:09:37.060Z,64.18
2022-12-19T20:12:07.136Z,68.50
2022-12-19T20:14:36.307Z,66.15
2022-12-19T20:17:05.298Z,64.20
2022-12-19T20:19:33.180Z,60.50
2022-12-19T20:22:01.170Z,53.83
2022-12-19T20:24:30.650Z,56.35
2022-12-19T20:26:59.712Z,53.67
2022-12-19T20:29:30.388Z,56.45
2022-12-19T20:32:01.520Z,53.92
2022-12-19T20:34:29.870Z,51.60
2022-12-19T20:36:59.400Z,52.70
2022-12-19T20:39:27.527Z,54.38
2022-12-19T20:41:55.832Z,57.13
2022-12-19T20:44:24.839Z,57.03
2022-12-19T20:46:57.696Z,56.95
2022-12-19T20:49:25.813Z,62.20
2022-12-19T20:51:54.259Z,56.90
2022-12-19T20:54:23.638Z,57.40
2022-12-19T20:56:51.741Z,57.03
2022-12-19T20:59:20.341Z,56.28
2022-12-19T21:01:48.445Z,58.42
2022-12-19T21:04:19.200Z,59.90
2022-12-19T21:06:47.508Z,50.72
2022-12-19T21:09:15.545Z,56.33
2022-12-19T21:11:43.608Z,52.33
2022-12-19T21:14:12.254Z,56.95
2022-12-19T21:16:40.505Z,58.03
2022-12-19T21:19:09.021Z,52.67
2022-12-19T21:21:38.496Z,51.50
2022-12-19T21:24:07.396Z,53.22
2022-12-19T21:26:35.593Z,52.10
2022-12-19T21:29:03.715Z,51.42
2022-12-19T21:31:32.069Z,58.05
2022-12-19T21:34:02.153Z,50.63
2022-12-19T21:36:32.441Z,51.45
2022-12-19T21:39:03.051Z,49.90
2022-12-19T21:41:31.885Z,53.92
2022-12-19T21:44:01.092Z,51.30
2022-12-19T21:46:33.323Z,58.28
2022-12-19T21:49:02.848Z,57.10
2022-12-19T21:51:32.573Z,58.70
2022-12-19T21:54:04.492Z,49.90
2022-12-19T21:56:34.453Z,54.17
2022-12-19T21:59:05.029Z,57.78
2022-12-19T22:01:35.111Z,51.58
2022-12-19T22:04:06.362Z,51.35
2022-12-19T22:06:37.145Z,52.90
2022-12-19T22:09:09.982Z,55.72
2022-12-19T22:11:40.669Z,60.53
2022-12-19T22:14:12.600Z,58.92
2022-12-19T22:16:40.951Z,56.95
2022-12-19T22:19:10.997Z,55.17
2022-12-19T22:21:39.139Z,54.83
2022-12-19T22:24:14.338Z,52.05
2022-12-19T22:26:42.679Z,51.95
2022-12-19T22:29:14.541Z,51.80
2022-12-19T22:31:42.866Z,48.97
2022-12-19T22:34:12.980Z,54.50
2022-12-19T22:36:42.638Z,53.40
2022-12-19T22:39:14.573Z,50.95
2022-12-19T22:41:43.874Z,48.72
2022-12-19T22:44:18.150Z,49.08
2022-12-19T22:46:49.008Z,55.20
2022-12-19T22:49:17.171Z,66.13
2022-12-19T22:51:48.369Z,59.67
2022-12-19T22:54:19.301Z,53.85
2022-12-19T22:56:50.807Z,59.38
2022-12-19T22:59:19.449Z,55.90
2022-12-19T23:01:49.846Z,51.47
2022-12-19T23:04:18.454Z,55.38
2022-12-19T23:06:46.886Z,55.28
2022-12-19T23:09:17.962Z,56.65
2022-12-19T23:11:48.213Z,63.97
2022-12-19T23:14:19.947Z,71.72
2022-12-19T23:16:49.012Z,73.28
2022-12-19T23:19:18.749Z,65.32
2022-12-19T23:21:47.880Z,63.53
2022-12-19T23:24:17.251Z,53.83
2022-12-19T23:26:48.302Z,47.33
2022-12-19T23:29:16.747Z,51.40
2022-12-19T23:31:48.134Z,52.97
2022-12-19T23:34:17.330Z,55.70
2022-12-19T23:37:10.318Z,49.17
2022-12-19T23:39:36.465Z,59.15
2022-12-19T23:42:04.813Z,55.88
2022-12-19T23:44:32.800Z,57.00
2022-12-19T23:47:03.853Z,52.60
2022-12-19T23:49:32.729Z,44.58
2022-12-19T23:52:00.850Z,48.30
2022-12-19T23:54:28.973Z,45.17
2022-12-19T23:56:58.435Z,52.47
2022-12-19T23:59:26.474Z,47.85
